createdAt,value
2023-08-17T00:00:49.763Z,59.53
2023-08-17T00:02:52.345Z,59.45
2023-08-17T00:04:55.321Z,59.99
2023-08-17T00:06:57.850Z,60.06
2023-08-17T00:09:00.414Z,61.12
2023-08-17T00:11:02.938Z,61.11
2023-08-17T00:13:05.827Z,62.02
2023-08-17T00:15:08.642Z,62.14
2023-08-17T00:17:11.163Z,62.63
2023-08-17T00:19:16.620Z,63.10
2023-08-17T00:21:19.345Z,63.31
2023-08-17T00:23:22.515Z,63.60
2023-08-17T00:25:25.134Z,63.85
2023-08-17T00:27:27.956Z,63.77
2023-08-17T00:29:30.581Z,64.16
2023-08-17T00:31:33.100Z,64.67
2023-08-17T00:33:35.783Z,64.91
2023-08-17T00:35:38.287Z,64.93
2023-08-17T00:37:40.851Z,64.90
2023-08-17T00:39:43.351Z,65.04
2023-08-17T00:41:45.881Z,65.28
2023-08-17T00:43:48.383Z,65.58
2023-08-17T00:45:51.073Z,65.71
2023-08-17T00:47:56.204Z,65.66
2023-08-17T00:49:59.843Z,65.74
2023-08-17T00:52:03.968Z,66.30
2023-08-17T00:54:06.617Z,66.53
2023-08-17T00:56:10.067Z,66.59
2023-08-17T00:58:13.422Z,66.66
2023-08-17T01:00:18.004Z,66.97
2023-08-17T01:02:22.843Z,67.07
2023-08-17T01:04:25.509Z,67.27
2023-08-17T01:06:28.051Z,67.63
2023-08-17T01:08:32.073Z,67.58
2023-08-17T01:11:16.029Z,67.51
2023-08-17T01:13:26.294Z,67.67
2023-08-17T01:15:47.165Z,67.71
2023-08-17T01:18:21.614Z,67.90
2023-08-17T01:20:25.197Z,67.96
2023-08-17T01:22:29.936Z,68.16
2023-08-17T01:24:32.559Z,68.25
2023-08-17T01:26:35.174Z,68.40
2023-08-17T01:28:37.673Z,68.40
2023-08-17T01:31:03.509Z,68.34
2023-08-17T01:33:10.165Z,68.35
2023-08-17T01:35:21.303Z,68.67
2023-08-17T01:37:28.513Z,68.71
2023-08-17T01:39:39.432Z,68.98
2023-08-17T01:41:44.435Z,69.40
2023-08-17T01:43:49.235Z,69.40
2023-08-17T01:45:52.785Z,70.01
2023-08-17T01:47:57.395Z,69.95
2023-08-17T01:50:01.564Z,69.94
2023-08-17T01:52:04.223Z,70.14
2023-08-17T01:54:07.153Z,70.35
2023-08-17T01:56:09.631Z,70.64
2023-08-17T01:58:12.127Z,70.82
2023-08-17T02:00:15.290Z,70.85
2023-08-17T02:02:18.826Z,71.08
2023-08-17T02:04:21.412Z,71.40
2023-08-17T02:06:23.890Z,71.33
2023-08-17T02:08:26.677Z,71.64
2023-08-17T02:10:29.252Z,71.81
2023-08-17T02:12:31.758Z,72.13
2023-08-17T02:14:34.405Z,72.11
2023-08-17T02:16:37.381Z,72.48
2023-08-17T02:18:39.878Z,72.63
2023-08-17T02:20:42.737Z,72.88
2023-08-17T02:22:45.326Z,72.96
2023-08-17T02:24:48.221Z,73.20
2023-08-17T02:26:50.737Z,73.29
2023-08-17T02:28:53.266Z,73.53
2023-08-17T02:30:59.892Z,73.46
2023-08-17T02:33:02.552Z,73.72
2023-08-17T02:35:05.354Z,73.75
2023-08-17T02:37:07.888Z,74.01
2023-08-17T02:39:10.614Z,74.14
2023-08-17T02:41:13.098Z,74.07
2023-08-17T02:43:15.612Z,74.20
2023-08-17T02:45:18.409Z,74.66
2023-08-17T02:47:20.973Z,74.81
2023-08-17T02:49:23.497Z,74.74
2023-08-17T02:51:26.100Z,75.09
2023-08-17T02:53:28.604Z,75.17
2023-08-17T02:55:31.111Z,75.01
2023-08-17T02:57:33.763Z,74.97
2023-08-17T02:59:36.259Z,74.61
2023-08-17T03:01:38.779Z,74.69
2023-08-17T03:03:41.776Z,74.46
2023-08-17T03:05:44.380Z,74.67
2023-08-17T03:07:47.023Z,74.83
2023-08-17T03:09:49.570Z,74.21
2023-08-17T03:11:52.185Z,74.20
2023-08-17T03:14:01.509Z,74.77
2023-08-17T03:16:04.201Z,74.57
2023-08-17T03:18:06.753Z,74.20
2023-08-17T03:20:09.822Z,74.46
2023-08-17T03:22:12.454Z,74.43
2023-08-17T03:24:14.961Z,74.75
2023-08-17T03:26:17.818Z,74.75
2023-08-17T03:28:20.321Z,74.74
2023-08-17T03:30:22.785Z,74.50
2023-08-17T03:32:25.360Z,74.53
2023-08-17T03:34:27.865Z,74.28
2023-08-17T03:36:30.410Z,75.15
2023-08-17T03:38:32.911Z,74.85
2023-08-17T03:40:35.538Z,74.87
2023-08-17T03:42:38.063Z,74.82
2023-08-17T03:44:40.784Z,75.27
2023-08-17T03:46:43.381Z,75.19
2023-08-17T03:48:45.973Z,75.50
2023-08-17T03:50:48.641Z,75.54
2023-08-17T03:52:51.173Z,75.43
2023-08-17T03:54:53.739Z,75.54
2023-08-17T03:56:56.280Z,75.81
2023-08-17T03:58:59.049Z,75.98
2023-08-17T04:01:01.528Z,75.99
2023-08-17T04:03:04.233Z,75.63
2023-08-17T04:05:07.266Z,75.63
2023-08-17T04:07:09.993Z,75.43
2023-08-17T04:09:12.757Z,76.15
2023-08-17T04:11:15.367Z,75.84
2023-08-17T04:13:17.907Z,75.67
2023-08-17T04:15:20.441Z,75.75
2023-08-17T04:17:23.383Z,75.94
2023-08-17T04:19:26.100Z,75.63
2023-08-17T04:21:28.724Z,75.62
2023-08-17T04:23:32.114Z,76.19
2023-08-17T04:25:35.183Z,75.83
2023-08-17T04:27:37.714Z,75.59
2023-08-17T04:29:40.319Z,75.66
2023-08-17T04:31:43.018Z,76.03
2023-08-17T04:33:45.582Z,76.10
2023-08-17T04:35:51.244Z,76.06
2023-08-17T04:37:54.332Z,76.23
2023-08-17T04:39:56.925Z,76.02
2023-08-17T04:42:00.167Z,76.12
2023-08-17T04:44:02.885Z,76.26
2023-08-17T04:46:05.910Z,76.83
2023-08-17T04:48:09.052Z,76.37
2023-08-17T04:50:11.993Z,76.20
2023-08-17T04:52:14.526Z,76.27
2023-08-17T04:54:17.082Z,76.42
2023-08-17T04:56:19.595Z,76.35
2023-08-17T04:58:22.132Z,76.26
2023-08-17T05:00:29.597Z,76.36
2023-08-17T05:02:32.457Z,76.10
2023-08-17T05:04:35.028Z,76.55
2023-08-17T05:06:38.662Z,76.27
2023-08-17T05:08:41.187Z,76.50
2023-08-17T05:10:43.698Z,76.63
2023-08-17T05:12:46.366Z,76.71
2023-08-17T05:14:48.879Z,76.63
2023-08-17T05:16:51.421Z,76.79
2023-08-17T05:18:54.089Z,76.85
2023-08-17T05:20:56.653Z,77.09
2023-08-17T05:22:59.184Z,76.98
2023-08-17T05:25:01.802Z,77.31
2023-08-17T05:27:04.435Z,77.30
2023-08-17T05:29:06.941Z,77.02
2023-08-17T05:31:10.272Z,77.19
2023-08-17T05:33:12.881Z,77.41
2023-08-17T05:35:15.546Z,77.48
2023-08-17T05:37:18.460Z,77.34
2023-08-17T05:39:21.166Z,77.31
2023-08-17T05:41:23.673Z,77.62
2023-08-17T05:43:26.660Z,77.43
2023-08-17T05:45:29.625Z,77.32
2023-08-17T05:47:32.203Z,77.62
2023-08-17T05:49:34.724Z,77.57
2023-08-17T05:51:37.232Z,77.88
2023-08-17T05:53:39.725Z,77.99
2023-08-17T05:55:42.303Z,78.02
2023-08-17T05:57:44.811Z,77.87
2023-08-17T05:59:47.336Z,78.18
2023-08-17T06:01:49.867Z,77.97
2023-08-17T06:03:52.554Z,78.22
2023-08-17T06:05:55.287Z,77.98
2023-08-17T06:07:58.671Z,78.11
2023-08-17T06:10:01.783Z,78.44
2023-08-17T06:12:04.582Z,78.37
2023-08-17T06:14:07.498Z,78.37
2023-08-17T06:16:10.021Z,78.32
2023-08-17T06:18:12.575Z,78.38
2023-08-17T06:20:16.024Z,78.49
2023-08-17T06:22:18.543Z,78.49
2023-08-17T06:24:21.124Z,78.51
2023-08-17T06:26:23.660Z,78.72
2023-08-17T06:28:27.460Z,78.68
2023-08-17T06:30:30.026Z,78.90
2023-08-17T06:32:32.858Z,78.68
2023-08-17T06:34:37.780Z,78.77
2023-08-17T06:36:41.229Z,79.03
2023-08-17T06:38:44.279Z,79.37
2023-08-17T06:40:47.846Z,79.18
2023-08-17T06:42:50.485Z,79.05
2023-08-17T06:44:53.047Z,79.21
2023-08-17T06:46:55.744Z,79.29
2023-08-17T06:48:58.231Z,79.13
2023-08-17T06:51:00.780Z,79.20
2023-08-17T06:53:04.026Z,79.30
2023-08-17T06:55:06.749Z,79.42
2023-08-17T06:57:09.264Z,79.41
2023-08-17T06:59:11.817Z,79.32
2023-08-17T07:01:14.287Z,79.45
2023-08-17T07:03:17.823Z,79.40
2023-08-17T07:05:20.441Z,79.36
2023-08-17T07:07:22.934Z,79.15
2023-08-17T07:09:25.551Z,79.13
2023-08-17T07:11:28.307Z,79.25
2023-08-17T07:13:30.785Z,79.57
2023-08-17T07:15:33.643Z,79.15
2023-08-17T07:17:36.325Z,79.35
2023-08-17T07:20:04.569Z,79.12
2023-08-17T07:22:01.320Z,79.22
2023-08-17T07:24:16.867Z,79.07
2023-08-17T07:26:20.577Z,79.26
2023-08-17T07:28:23.136Z,79.41
2023-08-17T07:30:25.758Z,79.20
2023-08-17T07:32:28.290Z,79.45
2023-08-17T07:34:32.700Z,79.60
2023-08-17T07:36:35.659Z,79.40
2023-08-17T07:38:38.154Z,79.69
2023-08-17T07:40:40.757Z,79.49
2023-08-17T07:42:43.325Z,79.50
2023-08-17T07:44:45.971Z,79.49
2023-08-17T07:46:48.532Z,79.47
2023-08-17T07:48:51.115Z,79.76
2023-08-17T07:50:54.531Z,79.60
2023-08-17T07:52:57.100Z,79.64
2023-08-17T07:54:59.650Z,79.45
2023-08-17T07:57:02.304Z,79.54
2023-08-17T07:59:05.096Z,79.76
2023-08-17T08:01:07.641Z,80.02
2023-08-17T08:03:11.304Z,79.79
2023-08-17T08:05:15.721Z,80.07
2023-08-17T08:07:18.212Z,80.18
2023-08-17T08:09:20.704Z,80.21
2023-08-17T08:11:24.166Z,80.06
2023-08-17T08:13:26.714Z,80.29
2023-08-17T08:15:29.213Z,80.21
2023-08-17T08:17:31.979Z,80.22
2023-08-17T08:19:34.689Z,80.28
2023-08-17T08:21:37.187Z,79.86
2023-08-17T08:23:39.863Z,80.39
2023-08-17T08:25:42.680Z,80.37
2023-08-17T08:27:45.174Z,80.60
2023-08-17T08:29:47.971Z,80.58
2023-08-17T08:31:50.485Z,80.19
2023-08-17T08:33:54.454Z,80.50
2023-08-17T08:35:56.978Z,80.61
2023-08-17T08:38:01.260Z,80.43
2023-08-17T08:40:03.870Z,80.66
2023-08-17T08:42:06.427Z,80.76
2023-08-17T08:44:09.302Z,80.84
2023-08-17T08:46:13.497Z,80.83
2023-08-17T08:48:19.847Z,80.80
2023-08-17T08:50:23.690Z,81.11
2023-08-17T08:52:35.495Z,81.12
2023-08-17T08:54:39.668Z,81.22
2023-08-17T08:56:48.333Z,81.31
2023-08-17T08:58:54.609Z,81.45
2023-08-17T09:01:00.185Z,81.55
2023-08-17T09:03:05.353Z,81.60
2023-08-17T09:05:10.759Z,81.64
2023-08-17T09:07:16.353Z,81.63
2023-08-17T09:09:19.718Z,81.82
2023-08-17T09:11:22.234Z,82.12
2023-08-17T09:13:24.990Z,82.12
2023-08-17T09:15:27.493Z,82.10
2023-08-17T09:17:30.253Z,82.23
2023-08-17T09:19:35.995Z,82.18
2023-08-17T09:21:38.503Z,82.31
2023-08-17T09:23:41.646Z,82.38
2023-08-17T09:25:45.943Z,82.43
2023-08-17T09:27:48.430Z,82.56
2023-08-17T09:29:51.090Z,82.74
2023-08-17T09:31:53.586Z,82.83
2023-08-17T09:33:56.226Z,83.10
2023-08-17T09:36:00.521Z,83.07
2023-08-17T09:38:03.192Z,83.24
2023-08-17T09:40:05.975Z,83.44
2023-08-17T09:42:08.519Z,83.40
2023-08-17T09:44:11.113Z,83.21
2023-08-17T09:46:13.785Z,83.41
2023-08-17T09:48:19.016Z,83.52
2023-08-17T09:50:24.646Z,83.63
2023-08-17T09:52:27.332Z,83.55
2023-08-17T09:54:33.121Z,83.89
2023-08-17T09:56:36.488Z,83.69
2023-08-17T09:58:40.547Z,83.49
2023-08-17T10:00:52.104Z,83.60
2023-08-17T10:02:54.822Z,83.63
2023-08-17T10:05:00.121Z,83.54
2023-08-17T10:07:05.689Z,83.46
2023-08-17T10:09:11.836Z,83.30
2023-08-17T10:11:16.589Z,83.36
2023-08-17T10:13:40.178Z,83.38
2023-08-17T10:16:10.265Z,83.40
2023-08-17T10:18:33.530Z,83.35
2023-08-17T10:20:39.453Z,83.36
2023-08-17T10:22:53.497Z,83.28
2023-08-17T10:24:57.350Z,83.31
2023-08-17T10:27:00.625Z,83.58
2023-08-17T10:29:13.475Z,83.40
2023-08-17T10:31:18.686Z,83.35
2023-08-17T10:33:22.295Z,83.53
2023-08-17T10:35:25.504Z,83.72
2023-08-17T10:37:28.421Z,83.52
2023-08-17T10:39:32.024Z,83.57
2023-08-17T10:41:50.401Z,83.41
2023-08-17T10:44:00.162Z,83.66
2023-08-17T10:46:21.185Z,83.79
2023-08-17T10:48:28.074Z,83.74
2023-08-17T10:50:30.705Z,83.79
2023-08-17T10:52:39.127Z,84.18
2023-08-17T10:54:43.336Z,83.94
2023-08-17T10:56:47.185Z,84.04
2023-08-17T10:58:53.197Z,83.91
2023-08-17T11:00:58.626Z,84.08
2023-08-17T11:03:02.178Z,84.08
2023-08-17T11:05:05.942Z,83.77
2023-08-17T11:07:17.624Z,83.94
2023-08-17T11:09:23.784Z,84.23
2023-08-17T11:11:26.362Z,84.09
2023-08-17T11:13:33.575Z,84.10
2023-08-17T11:15:44.180Z,84.04
2023-08-17T11:17:46.728Z,83.81
2023-08-17T11:19:52.456Z,83.94
2023-08-17T11:21:55.396Z,83.95
2023-08-17T11:23:59.369Z,83.99
2023-08-17T11:26:02.493Z,84.00
2023-08-17T11:28:07.968Z,83.86
2023-08-17T11:30:11.485Z,83.80
2023-08-17T11:32:14.263Z,83.86
2023-08-17T11:34:17.131Z,84.00
2023-08-17T11:36:19.720Z,84.20
2023-08-17T11:38:22.271Z,84.56
2023-08-17T11:40:26.851Z,84.56
2023-08-17T11:42:29.736Z,84.17
2023-08-17T11:44:32.658Z,84.23
2023-08-17T11:46:35.602Z,84.28
2023-08-17T11:48:38.721Z,84.19
2023-08-17T11:50:41.295Z,84.09
2023-08-17T11:52:46.265Z,83.65
2023-08-17T11:54:52.237Z,83.78
2023-08-17T11:56:55.176Z,83.59
2023-08-17T11:58:57.664Z,84.17
2023-08-17T12:01:00.198Z,83.85
2023-08-17T12:03:03.004Z,84.00
2023-08-17T12:05:09.270Z,83.58
2023-08-17T12:07:12.651Z,83.80
2023-08-17T12:09:18.168Z,84.28
2023-08-17T12:11:20.755Z,84.13
2023-08-17T12:13:34.515Z,83.85
2023-08-17T12:15:37.208Z,84.23
2023-08-17T12:17:47.904Z,83.82
2023-08-17T12:19:51.913Z,83.79
2023-08-17T12:21:54.617Z,83.71
2023-08-17T12:23:57.234Z,83.87
2023-08-17T12:25:59.839Z,83.70
2023-08-17T12:28:02.672Z,83.37
2023-08-17T12:30:05.810Z,83.38
2023-08-17T12:32:09.153Z,83.00
2023-08-17T12:34:11.749Z,83.21
2023-08-17T12:36:14.305Z,83.05
2023-08-17T12:38:16.830Z,82.42
2023-08-17T12:40:19.527Z,81.98
2023-08-17T12:42:22.017Z,82.26
2023-08-17T12:44:24.669Z,82.12
2023-08-17T12:46:32.472Z,82.14
2023-08-17T12:48:36.769Z,82.12
2023-08-17T12:50:43.319Z,81.74
2023-08-17T12:52:47.659Z,81.70
2023-08-17T12:54:55.695Z,81.41
2023-08-17T12:56:59.267Z,81.46
2023-08-17T12:59:03.521Z,81.30
2023-08-17T13:01:06.169Z,81.21
2023-08-17T13:03:10.106Z,80.97
2023-08-17T13:05:13.381Z,80.63
2023-08-17T13:07:17.366Z,80.74
2023-08-17T13:09:20.463Z,80.77
2023-08-17T13:11:23.000Z,80.57
2023-08-17T13:13:25.537Z,80.33
2023-08-17T13:15:28.161Z,80.04
2023-08-17T13:17:30.764Z,80.47
2023-08-17T13:19:33.464Z,80.09
2023-08-17T13:21:35.940Z,79.94
2023-08-17T13:23:38.472Z,79.71
2023-08-17T13:25:40.966Z,79.73
2023-08-17T13:27:43.459Z,79.32
2023-08-17T13:29:46.096Z,79.19
2023-08-17T13:31:51.981Z,79.17
2023-08-17T13:33:54.629Z,79.06
2023-08-17T13:35:57.301Z,79.25
2023-08-17T13:37:59.840Z,79.02
2023-08-17T13:40:02.438Z,78.79
2023-08-17T13:42:05.123Z,79.08
2023-08-17T13:44:07.960Z,78.25
2023-08-17T13:46:11.225Z,78.04
2023-08-17T13:48:13.752Z,77.56
2023-08-17T13:50:16.302Z,77.72
2023-08-17T13:52:19.443Z,77.85
2023-08-17T13:54:22.106Z,77.45
2023-08-17T13:56:25.470Z,77.68
2023-08-17T13:58:29.253Z,77.45
2023-08-17T14:00:31.850Z,77.22
2023-08-17T14:02:34.646Z,77.25
2023-08-17T14:04:37.586Z,76.74
2023-08-17T14:06:40.739Z,76.40
2023-08-17T14:08:43.715Z,76.59
2023-08-17T14:10:46.315Z,76.73
2023-08-17T14:12:48.920Z,75.74
2023-08-17T14:14:51.489Z,76.74
2023-08-17T14:16:53.978Z,76.27
2023-08-17T14:18:56.533Z,76.11
2023-08-17T14:20:59.184Z,75.78
2023-08-17T14:23:01.885Z,74.98
2023-08-17T14:25:04.732Z,75.33
2023-08-17T14:27:07.292Z,75.07
2023-08-17T14:29:09.754Z,74.73
2023-08-17T14:31:17.320Z,73.64
2023-08-17T14:33:19.986Z,73.77
2023-08-17T14:35:22.561Z,73.95
2023-08-17T14:37:25.641Z,72.91
2023-08-17T14:39:28.412Z,72.76
2023-08-17T14:41:33.925Z,72.82
2023-08-17T14:43:36.841Z,72.97
2023-08-17T14:45:41.291Z,72.46
2023-08-17T14:47:44.363Z,72.14
2023-08-17T14:49:47.046Z,72.85
2023-08-17T14:51:49.664Z,72.89
2023-08-17T14:53:52.372Z,72.76
2023-08-17T15:00:05.764Z,70.68
2023-08-17T15:02:08.361Z,69.95
2023-08-17T15:04:10.878Z,69.05
2023-08-17T15:06:24.271Z,69.14
2023-08-17T15:08:35.981Z,69.20
2023-08-17T15:10:38.485Z,68.13
2023-08-17T15:12:41.141Z,68.32
2023-08-17T15:14:43.723Z,67.94
2023-08-17T15:16:46.236Z,68.10
2023-08-17T15:18:48.743Z,67.52
2023-08-17T15:20:51.340Z,67.08
2023-08-17T15:22:53.890Z,67.18
2023-08-17T15:24:56.412Z,67.33
2023-08-17T15:26:59.004Z,67.38
2023-08-17T15:29:01.521Z,67.23
2023-08-17T15:31:10.698Z,67.28
2023-08-17T15:33:13.276Z,66.83
2023-08-17T15:35:15.978Z,67.17
2023-08-17T15:37:18.467Z,67.42
2023-08-17T15:39:21.100Z,67.58
2023-08-17T15:41:23.628Z,66.91
2023-08-17T15:43:26.241Z,67.56
2023-08-17T15:45:29.558Z,67.11
2023-08-17T15:47:32.277Z,67.49
2023-08-17T15:49:34.813Z,68.12
2023-08-17T15:51:37.359Z,66.63
2023-08-17T15:53:44.790Z,67.20
2023-08-17T15:55:47.376Z,65.92
2023-08-17T15:57:51.048Z,66.35
2023-08-17T15:59:54.070Z,65.87
2023-08-17T16:01:56.584Z,65.91
2023-08-17T16:03:59.171Z,65.89
2023-08-17T16:06:01.703Z,66.01
2023-08-17T16:08:04.382Z,65.11
2023-08-17T16:10:07.726Z,65.86
2023-08-17T16:12:11.478Z,65.78
2023-08-17T16:14:13.981Z,64.95
2023-08-17T16:16:16.787Z,64.96
2023-08-17T16:18:19.351Z,64.65
2023-08-17T16:20:22.130Z,64.97
2023-08-17T16:22:24.685Z,64.28
2023-08-17T16:24:27.821Z,63.83
2023-08-17T16:26:34.326Z,63.17
2023-08-17T16:28:37.314Z,63.68
2023-08-17T16:30:41.789Z,63.68
2023-08-17T16:32:44.311Z,63.21
2023-08-17T16:34:49.027Z,63.32
2023-08-17T16:36:51.517Z,63.16
2023-08-17T16:38:55.677Z,63.20
2023-08-17T16:40:58.533Z,61.67
2023-08-17T16:43:01.597Z,61.68
2023-08-17T16:45:04.888Z,61.42
2023-08-17T16:47:12.640Z,61.13
2023-08-17T16:49:15.142Z,61.71
2023-08-17T16:51:17.634Z,61.70
2023-08-17T16:53:20.878Z,60.26
2023-08-17T16:55:23.449Z,61.49
2023-08-17T16:57:26.277Z,60.23
2023-08-17T16:59:29.161Z,61.08
2023-08-17T17:01:31.756Z,60.85
2023-08-17T17:03:34.237Z,60.33
2023-08-17T17:05:36.828Z,61.22
2023-08-17T17:07:39.363Z,60.24
2023-08-17T17:09:41.892Z,60.72
2023-08-17T17:11:44.460Z,60.63
2023-08-17T17:13:46.957Z,60.90
2023-08-17T17:15:49.467Z,60.08
2023-08-17T17:17:52.066Z,60.23
2023-08-17T17:19:54.648Z,60.43
2023-08-17T17:21:57.184Z,60.00
2023-08-17T17:23:59.693Z,60.24
2023-08-17T17:26:08.941Z,60.10
2023-08-17T17:28:11.490Z,61.16
2023-08-17T17:30:14.248Z,60.49
2023-08-17T17:32:16.914Z,60.48
2023-08-17T17:34:19.858Z,60.69
2023-08-17T17:36:22.553Z,60.51
2023-08-17T17:38:25.039Z,59.35
2023-08-17T17:40:27.514Z,60.01
2023-08-17T17:42:30.028Z,60.71
2023-08-17T17:44:32.716Z,60.98
2023-08-17T17:46:35.491Z,60.58
2023-08-17T17:48:38.205Z,59.83
2023-08-17T17:50:40.791Z,60.77
2023-08-17T17:52:44.318Z,60.34
2023-08-17T17:54:48.152Z,60.59
2023-08-17T17:56:51.240Z,60.78
2023-08-17T17:58:53.979Z,61.50
2023-08-17T18:00:56.620Z,61.43
2023-08-17T18:03:19.679Z,61.55
2023-08-17T18:05:23.504Z,61.72
2023-08-17T18:07:28.154Z,61.46
2023-08-17T18:09:31.412Z,61.48
2023-08-17T18:11:33.969Z,61.31
2023-08-17T18:13:36.469Z,62.17
2023-08-17T18:15:39.916Z,62.16
2023-08-17T18:17:42.452Z,62.23
2023-08-17T18:19:44.991Z,62.57
2023-08-17T18:21:47.467Z,62.88
2023-08-17T18:23:50.952Z,63.30
2023-08-17T18:25:53.450Z,63.08
2023-08-17T18:27:55.954Z,63.71
2023-08-17T18:29:58.435Z,63.11
2023-08-17T18:32:00.931Z,63.37
2023-08-17T18:34:03.435Z,63.23
2023-08-17T18:36:06.086Z,64.01
2023-08-17T18:38:08.634Z,63.52
2023-08-17T18:40:12.544Z,63.01
2023-08-17T18:42:16.170Z,63.25
2023-08-17T18:44:18.759Z,62.95
2023-08-17T18:46:21.551Z,62.11
2023-08-17T18:48:24.107Z,62.22
2023-08-17T18:50:29.360Z,61.37
2023-08-17T18:52:31.568Z,60.46
2023-08-17T18:54:37.492Z,61.32
2023-08-17T18:56:40.679Z,61.88
2023-08-17T18:58:43.196Z,62.73
2023-08-17T19:00:45.743Z,63.20
2023-08-17T19:02:48.346Z,63.07
2023-08-17T19:04:51.137Z,64.52
2023-08-17T19:06:53.606Z,64.24
2023-08-17T19:08:56.220Z,64.11
2023-08-17T19:10:58.773Z,62.98
2023-08-17T19:13:01.311Z,63.12
2023-08-17T19:15:04.077Z,62.68
2023-08-17T19:17:06.633Z,62.56
2023-08-17T19:19:09.162Z,63.22
2023-08-17T19:21:11.686Z,63.00
2023-08-17T19:23:14.182Z,63.69
2023-08-17T19:25:16.876Z,63.58
2023-08-17T19:27:19.627Z,63.16
2023-08-17T19:29:22.277Z,63.35
2023-08-17T19:31:24.847Z,62.22
2023-08-17T19:33:27.449Z,60.94
2023-08-17T19:35:30.306Z,60.37
2023-08-17T19:37:34.033Z,60.05
2023-08-17T19:39:36.887Z,59.98
2023-08-17T19:41:41.819Z,60.69
2023-08-17T19:43:44.300Z,60.86
2023-08-17T19:45:47.278Z,60.43
2023-08-17T19:47:49.979Z,60.21
2023-08-17T19:49:52.518Z,60.89
2023-08-17T19:51:55.876Z,60.97
2023-08-17T19:53:58.495Z,60.81
2023-08-17T19:56:01.563Z,61.29
2023-08-17T19:58:04.270Z,61.43
2023-08-17T20:00:10.485Z,61.40
2023-08-17T20:02:13.031Z,61.21
2023-08-17T20:04:15.534Z,61.50
2023-08-17T20:06:18.264Z,61.30
2023-08-17T20:08:20.847Z,62.02
2023-08-17T20:10:23.387Z,61.89
2023-08-17T20:12:25.950Z,62.55
2023-08-17T20:14:31.294Z,62.64
2023-08-17T20:16:34.075Z,62.56
2023-08-17T20:18:36.624Z,62.44
2023-08-17T20:20:39.232Z,62.40
2023-08-17T20:22:41.875Z,62.02
2023-08-17T20:24:44.834Z,62.46
2023-08-17T20:26:47.439Z,62.42
2023-08-17T20:28:50.045Z,62.28
2023-08-17T20:31:01.635Z,62.12
2023-08-17T20:33:05.062Z,61.76
2023-08-17T20:35:08.045Z,62.03
2023-08-17T20:37:10.586Z,61.40
2023-08-17T20:39:13.289Z,60.68
2023-08-17T20:41:15.856Z,60.12
2023-08-17T20:43:18.933Z,60.32
2023-08-17T20:45:21.615Z,60.10
2023-08-17T20:47:24.934Z,59.55
2023-08-17T20:49:27.599Z,59.98
2023-08-17T20:51:30.130Z,59.74
2023-08-17T20:53:32.865Z,60.32
2023-08-17T20:55:37.803Z,60.46
2023-08-17T20:57:40.360Z,60.55
2023-08-17T20:59:42.928Z,60.48
2023-08-17T21:01:46.219Z,60.28
2023-08-17T21:03:48.862Z,59.60
2023-08-17T21:05:51.468Z,59.64
2023-08-17T21:07:54.281Z,59.69
2023-08-17T21:09:57.002Z,59.36
2023-08-17T21:12:00.565Z,59.49
2023-08-17T21:14:04.070Z,59.60
2023-08-17T21:16:08.791Z,59.90
2023-08-17T21:18:11.352Z,59.61
2023-08-17T21:20:14.478Z,59.83
2023-08-17T21:22:17.023Z,60.63
2023-08-17T21:24:19.734Z,59.97
2023-08-17T21:26:22.272Z,59.90
2023-08-17T21:28:24.798Z,59.87
2023-08-17T21:30:28.740Z,60.11
2023-08-17T21:32:31.279Z,60.47
2023-08-17T21:34:33.802Z,59.92
2023-08-17T21:36:36.333Z,59.78
2023-08-17T21:38:38.858Z,59.98
2023-08-17T21:40:41.373Z,59.22
2023-08-17T21:42:43.985Z,59.66
2023-08-17T21:44:46.512Z,58.99
2023-08-17T21:46:49.038Z,56.99
2023-08-17T21:48:51.604Z,54.39
2023-08-17T21:50:54.288Z,54.45
2023-08-17T21:52:58.461Z,53.63
2023-08-17T21:55:00.988Z,53.28
2023-08-17T21:57:03.511Z,53.06
2023-08-17T21:59:06.006Z,52.39
2023-08-17T22:01:09.926Z,53.63
2023-08-17T22:03:14.253Z,53.46
2023-08-17T22:05:17.039Z,53.62
2023-08-17T22:07:19.620Z,53.64
2023-08-17T22:09:22.157Z,54.18
2023-08-17T22:11:24.693Z,53.79
2023-08-17T22:13:27.258Z,54.08
2023-08-17T22:15:29.844Z,53.98
2023-08-17T22:17:32.441Z,53.81
2023-08-17T22:19:35.131Z,54.61
2023-08-17T22:21:37.668Z,54.62
2023-08-17T22:23:40.174Z,54.39
2023-08-17T22:25:42.680Z,55.08
2023-08-17T22:27:45.240Z,55.34
2023-08-17T22:29:47.743Z,55.60
2023-08-17T22:31:50.319Z,55.91
2023-08-17T22:33:52.800Z,55.90
2023-08-17T22:35:55.403Z,56.48
2023-08-17T22:37:57.976Z,56.35
2023-08-17T22:40:00.483Z,56.90
2023-08-17T22:42:03.439Z,57.25
2023-08-17T22:44:06.282Z,57.35
2023-08-17T22:46:08.827Z,57.76
2023-08-17T22:48:11.428Z,57.71
2023-08-17T22:50:14.071Z,58.05
2023-08-17T22:52:16.571Z,58.13
2023-08-17T22:54:19.067Z,58.56
2023-08-17T22:56:21.568Z,58.63
2023-08-17T22:58:24.089Z,59.14
2023-08-17T23:00:26.627Z,59.49
2023-08-17T23:02:29.226Z,59.93
2023-08-17T23:04:31.736Z,60.29
2023-08-17T23:06:34.271Z,60.69
2023-08-17T23:08:37.296Z,61.13
2023-08-17T23:10:39.795Z,61.69
2023-08-17T23:12:42.393Z,63.01
2023-08-17T23:14:44.908Z,64.41
2023-08-17T23:16:47.747Z,65.84
2023-08-17T23:18:50.339Z,65.73
2023-08-17T23:20:53.633Z,65.83
2023-08-17T23:22:56.151Z,66.13
2023-08-17T23:24:58.736Z,66.37
2023-08-17T23:27:01.267Z,66.27
2023-08-17T23:29:03.788Z,66.76
2023-08-17T23:31:06.335Z,67.27
2023-08-17T23:33:10.649Z,67.30
2023-08-17T23:35:13.223Z,67.44
2023-08-17T23:37:15.740Z,67.13
2023-08-17T23:39:18.552Z,67.27
2023-08-17T23:41:21.122Z,67.00
2023-08-17T23:43:23.656Z,67.36
2023-08-17T23:45:26.454Z,67.73
2023-08-17T23:47:29.171Z,67.73
2023-08-17T23:49:31.916Z,67.70
2023-08-17T23:51:34.425Z,67.93
2023-08-17T23:53:37.249Z,68.07
2023-08-17T23:55:39.757Z,68.05
2023-08-17T23:57:42.311Z,67.99
2023-08-17T23:59:44.837Z,68.04
